sensor_id;sensor_type;location;lat;lon;timestamp;P1;durP1;ratioP1;P2;durP2;ratioP2
61188;SDS011;47054;39.716;2.904;2022-12-18T00:02:39;6.13;;;2.70;;
61188;SDS011;47054;39.716;2.904;2022-12-18T00:05:24;6.43;;;2.70;;
61188;SDS011;47054;39.716;2.904;2022-12-18T00:08:09;4.80;;;2.33;;
61188;SDS011;47054;39.716;2.904;2022-12-18T00:10:54;4.68;;;2.42;;
61188;SDS011;47054;39.716;2.904;2022-12-18T00:13:39;6.50;;;2.47;;
61188;SDS011;47054;39.716;2.904;2022-12-18T00:16:25;4.85;;;2.60;;
61188;SDS011;47054;39.716;2.904;2022-12-18T00:19:11;4.47;;;2.20;;
61188;SDS011;47054;39.716;2.904;2022-12-18T00:21:55;6.60;;;2.50;;
61188;SDS011;47054;39.716;2.904;2022-12-18T00:24:40;5.95;;;2.55;;
61188;SDS011;47054;39.716;2.904;2022-12-18T00:27:25;5.50;;;2.40;;
61188;SDS011;47054;39.716;2.904;2022-12-18T00:30:09;3.50;;;2.08;;
61188;SDS011;47054;39.716;2.904;2022-12-18T00:32:55;3.88;;;2.22;;
61188;SDS011;47054;39.716;2.904;2022-12-18T00:35:43;3.40;;;2.10;;
61188;SDS011;47054;39.716;2.904;2022-12-18T00:38:29;5.43;;;2.80;;
61188;SDS011;47054;39.716;2.904;2022-12-18T00:41:14;4.70;;;2.35;;
61188;SDS011;47054;39.716;2.904;2022-12-18T00:44:22;4.00;;;2.20;;
61188;SDS011;47054;39.716;2.904;2022-12-18T00:47:08;7.72;;;2.47;;
61188;SDS011;47054;39.716;2.904;2022-12-18T00:49:53;4.30;;;2.20;;
61188;SDS011;47054;39.716;2.904;2022-12-18T00:52:38;4.57;;;2.38;;
61188;SDS011;47054;39.716;2.904;2022-12-18T00:55:23;3.53;;;1.85;;
61188;SDS011;47054;39.716;2.904;2022-12-18T00:58:08;4.35;;;2.20;;
61188;SDS011;47054;39.716;2.904;2022-12-18T01:00:54;3.83;;;2.05;;
61188;SDS011;47054;39.716;2.904;2022-12-18T01:03:38;3.92;;;2.00;;
61188;SDS011;47054;39.716;2.904;2022-12-18T01:06:23;4.18;;;2.00;;
61188;SDS011;47054;39.716;2.904;2022-12-18T01:09:07;3.38;;;2.15;;
61188;SDS011;47054;39.716;2.904;2022-12-18T01:11:54;3.90;;;2.10;;
61188;SDS011;47054;39.716;2.904;2022-12-18T01:14:39;6.22;;;2.17;;
61188;SDS011;47054;39.716;2.904;2022-12-18T01:17:23;4.85;;;2.13;;
61188;SDS011;47054;39.716;2.904;2022-12-18T01:20:08;4.78;;;2.17;;
61188;SDS011;47054;39.716;2.904;2022-12-18T01:22:56;5.50;;;2.15;;
61188;SDS011;47054;39.716;2.904;2022-12-18T01:25:40;4.13;;;2.10;;
61188;SDS011;47054;39.716;2.904;2022-12-18T01:28:27;3.38;;;1.98;;
61188;SDS011;47054;39.716;2.904;2022-12-18T01:31:14;4.93;;;2.20;;
61188;SDS011;47054;39.716;2.904;2022-12-18T01:34:04;4.32;;;2.28;;
61188;SDS011;47054;39.716;2.904;2022-12-18T01:36:49;5.03;;;2.00;;
61188;SDS011;47054;39.716;2.904;2022-12-18T01:39:37;4.57;;;1.90;;
61188;SDS011;47054;39.716;2.904;2022-12-18T01:42:22;3.00;;;1.90;;
61188;SDS011;47054;39.716;2.904;2022-12-18T01:48:02;4.30;;;1.98;;
61188;SDS011;47054;39.716;2.904;2022-12-18T01:50:50;3.67;;;1.92;;
61188;SDS011;47054;39.716;2.904;2022-12-18T01:53:35;2.95;;;1.60;;
61188;SDS011;47054;39.716;2.904;2022-12-18T01:56:21;3.78;;;2.10;;
61188;SDS011;47054;39.716;2.904;2022-12-18T01:59:07;3.10;;;1.80;;
61188;SDS011;47054;39.716;2.904;2022-12-18T02:01:55;4.07;;;2.03;;
61188;SDS011;47054;39.716;2.904;2022-12-18T02:04:40;3.35;;;1.88;;
61188;SDS011;47054;39.716;2.904;2022-12-18T02:07:35;4.63;;;2.00;;
61188;SDS011;47054;39.716;2.904;2022-12-18T02:10:32;3.67;;;1.75;;
61188;SDS011;47054;39.716;2.904;2022-12-18T02:23:10;4.18;;;2.13;;
61188;SDS011;47054;39.716;2.904;2022-12-18T02:29:03;4.10;;;1.50;;
61188;SDS011;47054;39.716;2.904;2022-12-18T02:31:54;3.83;;;1.77;;
61188;SDS011;47054;39.716;2.904;2022-12-18T02:34:43;3.50;;;1.75;;
61188;SDS011;47054;39.716;2.904;2022-12-18T02:37:32;3.88;;;1.90;;
61188;SDS011;47054;39.716;2.904;2022-12-18T02:40:23;3.22;;;1.83;;
61188;SDS011;47054;39.716;2.904;2022-12-18T02:43:10;3.42;;;1.60;;
61188;SDS011;47054;39.716;2.904;2022-12-18T02:45:57;4.38;;;1.90;;
61188;SDS011;47054;39.716;2.904;2022-12-18T02:48:46;4.10;;;1.60;;
61188;SDS011;47054;39.716;2.904;2022-12-18T02:51:38;2.88;;;1.60;;
61188;SDS011;47054;39.716;2.904;2022-12-18T03:04:13;3.17;;;1.63;;
61188;SDS011;47054;39.716;2.904;2022-12-18T03:07:02;4.15;;;1.70;;
61188;SDS011;47054;39.716;2.904;2022-12-18T03:09:50;3.45;;;1.80;;
61188;SDS011;47054;39.716;2.904;2022-12-18T03:12:40;3.05;;;1.65;;
61188;SDS011;47054;39.716;2.904;2022-12-18T03:15:31;2.85;;;1.73;;
61188;SDS011;47054;39.716;2.904;2022-12-18T03:18:40;2.92;;;1.60;;
61188;SDS011;47054;39.716;2.904;2022-12-18T03:21:36;3.25;;;1.67;;
61188;SDS011;47054;39.716;2.904;2022-12-18T03:24:25;2.50;;;1.67;;
61188;SDS011;47054;39.716;2.904;2022-12-18T03:27:12;2.83;;;1.60;;
61188;SDS011;47054;39.716;2.904;2022-12-18T03:30:03;3.40;;;1.50;;
61188;SDS011;47054;39.716;2.904;2022-12-18T03:33:01;2.70;;;1.50;;
61188;SDS011;47054;39.716;2.904;2022-12-18T03:35:52;2.22;;;1.40;;
61188;SDS011;47054;39.716;2.904;2022-12-18T03:38:38;2.92;;;1.60;;
61188;SDS011;47054;39.716;2.904;2022-12-18T03:41:32;2.70;;;1.50;;
61188;SDS011;47054;39.716;2.904;2022-12-18T03:44:44;2.78;;;1.42;;
61188;SDS011;47054;39.716;2.904;2022-12-18T03:50:53;2.60;;;1.30;;
61188;SDS011;47054;39.716;2.904;2022-12-18T03:56:36;2.63;;;1.40;;
61188;SDS011;47054;39.716;2.904;2022-12-18T03:59:25;3.10;;;1.40;;
61188;SDS011;47054;39.716;2.904;2022-12-18T04:02:13;3.72;;;1.73;;
61188;SDS011;47054;39.716;2.904;2022-12-18T04:05:01;2.47;;;1.40;;
61188;SDS011;47054;39.716;2.904;2022-12-18T04:07:48;2.53;;;1.40;;
61188;SDS011;47054;39.716;2.904;2022-12-18T04:10:35;3.22;;;1.40;;
61188;SDS011;47054;39.716;2.904;2022-12-18T04:13:22;2.72;;;1.60;;
61188;SDS011;47054;39.716;2.904;2022-12-18T04:16:07;1.90;;;1.30;;
61188;SDS011;47054;39.716;2.904;2022-12-18T04:18:55;3.00;;;1.50;;
61188;SDS011;47054;39.716;2.904;2022-12-18T04:21:42;2.50;;;1.50;;
61188;SDS011;47054;39.716;2.904;2022-12-18T04:24:29;2.20;;;1.27;;
61188;SDS011;47054;39.716;2.904;2022-12-18T04:27:26;3.47;;;1.45;;
61188;SDS011;47054;39.716;2.904;2022-12-18T04:30:11;2.38;;;1.40;;
61188;SDS011;47054;39.716;2.904;2022-12-18T04:32:55;2.40;;;1.33;;
61188;SDS011;47054;39.716;2.904;2022-12-18T04:35:40;4.20;;;1.48;;
61188;SDS011;47054;39.716;2.904;2022-12-18T04:38:26;2.95;;;1.35;;
61188;SDS011;47054;39.716;2.904;2022-12-18T04:41:19;1.98;;;1.20;;
61188;SDS011;47054;39.716;2.904;2022-12-18T04:44:06;2.90;;;1.42;;
61188;SDS011;47054;39.716;2.904;2022-12-18T04:46:51;2.50;;;1.30;;
61188;SDS011;47054;39.716;2.904;2022-12-18T04:49:36;2.78;;;1.45;;
61188;SDS011;47054;39.716;2.904;2022-12-18T04:52:20;2.03;;;1.17;;
61188;SDS011;47054;39.716;2.904;2022-12-18T04:55:05;2.88;;;1.45;;
61188;SDS011;47054;39.716;2.904;2022-12-18T04:57:49;3.38;;;1.52;;
61188;SDS011;47054;39.716;2.904;2022-12-18T05:00:34;2.78;;;1.40;;
61188;SDS011;47054;39.716;2.904;2022-12-18T05:03:19;2.55;;;1.60;;
61188;SDS011;47054;39.716;2.904;2022-12-18T05:06:04;3.80;;;1.88;;
61188;SDS011;47054;39.716;2.904;2022-12-18T05:08:50;3.83;;;1.50;;
61188;SDS011;47054;39.716;2.904;2022-12-18T05:11:36;2.60;;;1.50;;
61188;SDS011;47054;39.716;2.904;2022-12-18T05:14:20;2.47;;;1.52;;
61188;SDS011;47054;39.716;2.904;2022-12-18T05:17:05;2.25;;;1.45;;
61188;SDS011;47054;39.716;2.904;2022-12-18T05:19:49;2.80;;;1.52;;
61188;SDS011;47054;39.716;2.904;2022-12-18T05:22:34;2.67;;;1.60;;
61188;SDS011;47054;39.716;2.904;2022-12-18T05:25:18;2.53;;;1.40;;
61188;SDS011;47054;39.716;2.904;2022-12-18T05:28:04;3.17;;;1.70;;
61188;SDS011;47054;39.716;2.904;2022-12-18T05:30:49;4.00;;;1.58;;
61188;SDS011;47054;39.716;2.904;2022-12-18T05:33:34;2.53;;;1.60;;
61188;SDS011;47054;39.716;2.904;2022-12-18T05:36:20;3.28;;;1.60;;
61188;SDS011;47054;39.716;2.904;2022-12-18T05:39:04;3.00;;;1.70;;
61188;SDS011;47054;39.716;2.904;2022-12-18T05:41:49;3.00;;;1.73;;
61188;SDS011;47054;39.716;2.904;2022-12-18T05:44:33;4.50;;;1.85;;
61188;SDS011;47054;39.716;2.904;2022-12-18T05:47:18;3.40;;;2.00;;
61188;SDS011;47054;39.716;2.904;2022-12-18T05:50:02;3.47;;;2.08;;
61188;SDS011;47054;39.716;2.904;2022-12-18T05:52:47;3.83;;;2.05;;
61188;SDS011;47054;39.716;2.904;2022-12-18T05:55:35;4.63;;;2.50;;
61188;SDS011;47054;39.716;2.904;2022-12-18T05:58:22;6.57;;;3.10;;
61188;SDS011;47054;39.716;2.904;2022-12-18T06:01:14;7.53;;;3.75;;
61188;SDS011;47054;39.716;2.904;2022-12-18T06:03:58;5.80;;;2.97;;
61188;SDS011;47054;39.716;2.904;2022-12-18T06:06:43;7.15;;;3.72;;
61188;SDS011;47054;39.716;2.904;2022-12-18T06:09:28;6.60;;;3.28;;
61188;SDS011;47054;39.716;2.904;2022-12-18T06:12:13;9.20;;;4.20;;
61188;SDS011;47054;39.716;2.904;2022-12-18T06:14:57;8.60;;;4.13;;
61188;SDS011;47054;39.716;2.904;2022-12-18T06:17:42;9.15;;;4.40;;
61188;SDS011;47054;39.716;2.904;2022-12-18T06:20:26;7.13;;;3.92;;
61188;SDS011;47054;39.716;2.904;2022-12-18T06:23:11;9.43;;;5.07;;
61188;SDS011;47054;39.716;2.904;2022-12-18T06:25:55;9.70;;;4.50;;
61188;SDS011;47054;39.716;2.904;2022-12-18T06:28:41;8.68;;;4.38;;
61188;SDS011;47054;39.716;2.904;2022-12-18T06:31:26;8.60;;;4.43;;
61188;SDS011;47054;39.716;2.904;2022-12-18T06:34:10;8.95;;;4.25;;
61188;SDS011;47054;39.716;2.904;2022-12-18T06:36:55;7.32;;;3.85;;
61188;SDS011;47054;39.716;2.904;2022-12-18T06:39:40;8.23;;;3.80;;
61188;SDS011;47054;39.716;2.904;2022-12-18T06:42:24;9.70;;;4.30;;
61188;SDS011;47054;39.716;2.904;2022-12-18T06:45:09;7.28;;;4.00;;
61188;SDS011;47054;39.716;2.904;2022-12-18T06:47:55;7.32;;;3.90;;
61188;SDS011;47054;39.716;2.904;2022-12-18T06:50:42;7.63;;;4.13;;
61188;SDS011;47054;39.716;2.904;2022-12-18T06:53:26;9.68;;;4.50;;
61188;SDS011;47054;39.716;2.904;2022-12-18T06:56:11;7.85;;;3.97;;
61188;SDS011;47054;39.716;2.904;2022-12-18T06:58:57;8.77;;;4.10;;
61188;SDS011;47054;39.716;2.904;2022-12-18T07:01:41;7.60;;;3.85;;
61188;SDS011;47054;39.716;2.904;2022-12-18T07:04:29;8.88;;;4.28;;
61188;SDS011;47054;39.716;2.904;2022-12-18T07:07:14;7.97;;;3.97;;
61188;SDS011;47054;39.716;2.904;2022-12-18T07:09:59;7.28;;;3.90;;
61188;SDS011;47054;39.716;2.904;2022-12-18T07:12:43;7.25;;;3.83;;
61188;SDS011;47054;39.716;2.904;2022-12-18T07:15:28;7.50;;;3.88;;
61188;SDS011;47054;39.716;2.904;2022-12-18T07:18:12;7.63;;;3.95;;
61188;SDS011;47054;39.716;2.904;2022-12-18T07:20:57;9.75;;;3.60;;
61188;SDS011;47054;39.716;2.904;2022-12-18T07:23:42;8.27;;;3.95;;
61188;SDS011;47054;39.716;2.904;2022-12-18T07:26:28;7.53;;;3.70;;
61188;SDS011;47054;39.716;2.904;2022-12-18T07:29:13;7.78;;;3.97;;
61188;SDS011;47054;39.716;2.904;2022-12-18T07:31:58;7.43;;;3.58;;
61188;SDS011;47054;39.716;2.904;2022-12-18T07:34:43;7.43;;;3.70;;
61188;SDS011;47054;39.716;2.904;2022-12-18T07:37:27;7.55;;;3.95;;
61188;SDS011;47054;39.716;2.904;2022-12-18T07:40:12;7.85;;;3.58;;
61188;SDS011;47054;39.716;2.904;2022-12-18T07:42:57;7.07;;;3.72;;
61188;SDS011;47054;39.716;2.904;2022-12-18T07:45:42;7.85;;;3.65;;
61188;SDS011;47054;39.716;2.904;2022-12-18T07:48:28;7.43;;;3.65;;
61188;SDS011;47054;39.716;2.904;2022-12-18T07:51:13;6.85;;;3.40;;
61188;SDS011;47054;39.716;2.904;2022-12-18T07:53:57;6.85;;;3.38;;
61188;SDS011;47054;39.716;2.904;2022-12-18T07:56:42;5.90;;;3.17;;
61188;SDS011;47054;39.716;2.904;2022-12-18T07:59:26;7.18;;;3.40;;
61188;SDS011;47054;39.716;2.904;2022-12-18T08:02:11;6.75;;;3.30;;
61188;SDS011;47054;39.716;2.904;2022-12-18T08:04:55;6.38;;;2.97;;
61188;SDS011;47054;39.716;2.904;2022-12-18T08:07:40;5.57;;;2.97;;
61188;SDS011;47054;39.716;2.904;2022-12-18T08:10:24;5.50;;;3.13;;
61188;SDS011;47054;39.716;2.904;2022-12-18T08:13:09;6.53;;;3.20;;
61188;SDS011;47054;39.716;2.904;2022-12-18T08:15:55;5.25;;;2.70;;
61188;SDS011;47054;39.716;2.904;2022-12-18T08:18:51;5.65;;;2.90;;
61188;SDS011;47054;39.716;2.904;2022-12-18T08:21:37;5.63;;;2.92;;
61188;SDS011;47054;39.716;2.904;2022-12-18T08:24:25;5.60;;;2.78;;
61188;SDS011;47054;39.716;2.904;2022-12-18T08:27:09;5.78;;;2.88;;
61188;SDS011;47054;39.716;2.904;2022-12-18T08:29:54;7.13;;;3.15;;
61188;SDS011;47054;39.716;2.904;2022-12-18T08:32:39;5.45;;;2.60;;
61188;SDS011;47054;39.716;2.904;2022-12-18T08:35:24;5.43;;;2.83;;
61188;SDS011;47054;39.716;2.904;2022-12-18T08:38:08;5.18;;;2.80;;
61188;SDS011;47054;39.716;2.904;2022-12-18T08:40:59;6.35;;;2.90;;
61188;SDS011;47054;39.716;2.904;2022-12-18T08:43:45;6.45;;;3.10;;
61188;SDS011;47054;39.716;2.904;2022-12-18T08:46:47;5.03;;;2.72;;
61188;SDS011;47054;39.716;2.904;2022-12-18T08:49:34;5.78;;;2.75;;
61188;SDS011;47054;39.716;2.904;2022-12-18T08:52:19;7.30;;;3.13;;
61188;SDS011;47054;39.716;2.904;2022-12-18T08:55:04;5.88;;;3.08;;
61188;SDS011;47054;39.716;2.904;2022-12-18T08:57:49;4.85;;;2.70;;
61188;SDS011;47054;39.716;2.904;2022-12-18T09:00:34;4.97;;;2.72;;
61188;SDS011;47054;39.716;2.904;2022-12-18T09:03:18;4.85;;;2.80;;
61188;SDS011;47054;39.716;2.904;2022-12-18T09:06:03;5.38;;;2.92;;
61188;SDS011;47054;39.716;2.904;2022-12-18T09:08:48;5.35;;;2.83;;
61188;SDS011;47054;39.716;2.904;2022-12-18T09:11:33;5.53;;;2.78;;
61188;SDS011;47054;39.716;2.904;2022-12-18T09:14:18;4.80;;;2.88;;
61188;SDS011;47054;39.716;2.904;2022-12-18T09:17:03;4.88;;;2.42;;
61188;SDS011;47054;39.716;2.904;2022-12-18T09:19:48;5.78;;;2.72;;
61188;SDS011;47054;39.716;2.904;2022-12-18T09:22:33;4.90;;;2.53;;
61188;SDS011;47054;39.716;2.904;2022-12-18T09:25:18;5.65;;;2.78;;
61188;SDS011;47054;39.716;2.904;2022-12-18T09:28:03;4.80;;;2.60;;
61188;SDS011;47054;39.716;2.904;2022-12-18T09:30:58;4.80;;;2.53;;
61188;SDS011;47054;39.716;2.904;2022-12-18T09:33:47;5.55;;;2.90;;
61188;SDS011;47054;39.716;2.904;2022-12-18T09:36:32;4.47;;;2.50;;
61188;SDS011;47054;39.716;2.904;2022-12-18T09:39:17;7.30;;;2.58;;
61188;SDS011;47054;39.716;2.904;2022-12-18T09:42:01;4.65;;;2.63;;
61188;SDS011;47054;39.716;2.904;2022-12-18T09:44:50;5.80;;;2.92;;
61188;SDS011;47054;39.716;2.904;2022-12-18T09:47:38;6.27;;;2.60;;
61188;SDS011;47054;39.716;2.904;2022-12-18T09:50:25;3.67;;;2.13;;
61188;SDS011;47054;39.716;2.904;2022-12-18T09:53:15;5.15;;;2.85;;
61188;SDS011;47054;39.716;2.904;2022-12-18T09:56:04;5.00;;;2.45;;
61188;SDS011;47054;39.716;2.904;2022-12-18T09:58:59;4.38;;;2.38;;
61188;SDS011;47054;39.716;2.904;2022-12-18T10:01:45;4.80;;;2.47;;
61188;SDS011;47054;39.716;2.904;2022-12-18T10:04:30;4.65;;;2.58;;
61188;SDS011;47054;39.716;2.904;2022-12-18T10:07:22;5.50;;;2.72;;
61188;SDS011;47054;39.716;2.904;2022-12-18T10:10:18;6.03;;;2.63;;
61188;SDS011;47054;39.716;2.904;2022-12-18T10:16:33;4.72;;;2.33;;
61188;SDS011;47054;39.716;2.904;2022-12-18T10:28:13;5.30;;;2.40;;
61188;SDS011;47054;39.716;2.904;2022-12-18T10:30:59;4.90;;;2.78;;
61188;SDS011;47054;39.716;2.904;2022-12-18T10:33:44;5.03;;;2.45;;
61188;SDS011;47054;39.716;2.904;2022-12-18T10:36:29;4.70;;;2.50;;
61188;SDS011;47054;39.716;2.904;2022-12-18T10:39:19;5.45;;;2.70;;
61188;SDS011;47054;39.716;2.904;2022-12-18T10:42:13;4.97;;;2.40;;
61188;SDS011;47054;39.716;2.904;2022-12-18T10:45:05;5.80;;;2.75;;
61188;SDS011;47054;39.716;2.904;2022-12-18T10:48:00;6.35;;;2.50;;
61188;SDS011;47054;39.716;2.904;2022-12-18T10:50:46;4.07;;;2.30;;
61188;SDS011;47054;39.716;2.904;2022-12-18T10:53:34;4.32;;;2.50;;
61188;SDS011;47054;39.716;2.904;2022-12-18T10:56:20;5.13;;;2.35;;
61188;SDS011;47054;39.716;2.904;2022-12-18T10:59:06;4.75;;;2.22;;
61188;SDS011;47054;39.716;2.904;2022-12-18T11:01:57;4.53;;;2.22;;
61188;SDS011;47054;39.716;2.904;2022-12-18T11:04:50;5.00;;;2.60;;
61188;SDS011;47054;39.716;2.904;2022-12-18T11:07:46;4.18;;;2.45;;
61188;SDS011;47054;39.716;2.904;2022-12-18T11:10:36;6.40;;;2.50;;
61188;SDS011;47054;39.716;2.904;2022-12-18T11:13:27;3.80;;;2.15;;
61188;SDS011;47054;39.716;2.904;2022-12-18T11:16:20;4.93;;;2.80;;
61188;SDS011;47054;39.716;2.904;2022-12-18T11:19:22;4.57;;;2.30;;
61188;SDS011;47054;39.716;2.904;2022-12-18T11:22:23;4.55;;;2.58;;
61188;SDS011;47054;39.716;2.904;2022-12-18T11:28:01;3.97;;;2.25;;
61188;SDS011;47054;39.716;2.904;2022-12-18T11:30:48;4.93;;;2.42;;
61188;SDS011;47054;39.716;2.904;2022-12-18T11:33:32;5.50;;;2.45;;
61188;SDS011;47054;39.716;2.904;2022-12-18T11:36:18;5.40;;;2.55;;
61188;SDS011;47054;39.716;2.904;2022-12-18T11:48:52;5.78;;;2.50;;
61188;SDS011;47054;39.716;2.904;2022-12-18T11:51:45;3.72;;;2.30;;
61188;SDS011;47054;39.716;2.904;2022-12-18T11:54:33;4.68;;;2.45;;
61188;SDS011;47054;39.716;2.904;2022-12-18T11:57:25;4.15;;;2.40;;
61188;SDS011;47054;39.716;2.904;2022-12-18T12:00:20;4.40;;;2.42;;
61188;SDS011;47054;39.716;2.904;2022-12-18T12:05:57;4.00;;;2.30;;
61188;SDS011;47054;39.716;2.904;2022-12-18T12:17:40;4.18;;;2.42;;
61188;SDS011;47054;39.716;2.904;2022-12-18T12:23:49;3.72;;;2.15;;
61188;SDS011;47054;39.716;2.904;2022-12-18T12:29:31;4.00;;;2.20;;
61188;SDS011;47054;39.716;2.904;2022-12-18T12:32:37;4.32;;;2.20;;
61188;SDS011;47054;39.716;2.904;2022-12-18T12:38:25;3.83;;;2.08;;
61188;SDS011;47054;39.716;2.904;2022-12-18T12:41:36;3.88;;;2.10;;
61188;SDS011;47054;39.716;2.904;2022-12-18T12:44:59;4.03;;;2.30;;
61188;SDS011;47054;39.716;2.904;2022-12-18T12:47:49;3.85;;;2.10;;
61188;SDS011;47054;39.716;2.904;2022-12-18T12:50:35;3.55;;;2.13;;
61188;SDS011;47054;39.716;2.904;2022-12-18T12:53:33;3.95;;;2.22;;
61188;SDS011;47054;39.716;2.904;2022-12-18T12:56:20;4.22;;;2.30;;
61188;SDS011;47054;39.716;2.904;2022-12-18T12:59:18;4.07;;;2.17;;
61188;SDS011;47054;39.716;2.904;2022-12-18T13:08:25;4.35;;;2.25;;
61188;SDS011;47054;39.716;2.904;2022-12-18T13:11:21;4.03;;;2.20;;
61188;SDS011;47054;39.716;2.904;2022-12-18T13:14:50;4.65;;;2.33;;
61188;SDS011;47054;39.716;2.904;2022-12-18T13:17:35;3.83;;;2.10;;
61188;SDS011;47054;39.716;2.904;2022-12-18T13:20:19;4.38;;;2.60;;
61188;SDS011;47054;39.716;2.904;2022-12-18T13:28:54;3.97;;;2.20;;
61188;SDS011;47054;39.716;2.904;2022-12-18T13:34:29;3.85;;;2.30;;
61188;SDS011;47054;39.716;2.904;2022-12-18T13:37:39;3.53;;;2.00;;
61188;SDS011;47054;39.716;2.904;2022-12-18T13:40:52;3.33;;;2.13;;
61188;SDS011;47054;39.716;2.904;2022-12-18T13:43:42;3.63;;;2.07;;
61188;SDS011;47054;39.716;2.904;2022-12-18T13:46:50;4.07;;;2.15;;
61188;SDS011;47054;39.716;2.904;2022-12-18T13:49:38;4.72;;;1.90;;
61188;SDS011;47054;39.716;2.904;2022-12-18T13:52:26;4.57;;;2.30;;
61188;SDS011;47054;39.716;2.904;2022-12-18T13:55:16;3.90;;;2.03;;
61188;SDS011;47054;39.716;2.904;2022-12-18T13:58:04;4.18;;;2.30;;
61188;SDS011;47054;39.716;2.904;2022-12-18T14:00:49;4.65;;;2.20;;
61188;SDS011;47054;39.716;2.904;2022-12-18T14:03:33;5.13;;;2.10;;
61188;SDS011;47054;39.716;2.904;2022-12-18T14:06:18;4.80;;;2.25;;
61188;SDS011;47054;39.716;2.904;2022-12-18T14:09:04;4.38;;;2.47;;
61188;SDS011;47054;39.716;2.904;2022-12-18T14:11:49;3.90;;;2.17;;
61188;SDS011;47054;39.716;2.904;2022-12-18T14:14:34;5.07;;;2.47;;
61188;SDS011;47054;39.716;2.904;2022-12-18T14:17:20;4.47;;;2.15;;
61188;SDS011;47054;39.716;2.904;2022-12-18T14:20:12;4.28;;;2.20;;
61188;SDS011;47054;39.716;2.904;2022-12-18T14:22:59;4.18;;;2.30;;
61188;SDS011;47054;39.716;2.904;2022-12-18T14:25:45;4.15;;;2.20;;
61188;SDS011;47054;39.716;2.904;2022-12-18T14:28:30;4.53;;;2.30;;
61188;SDS011;47054;39.716;2.904;2022-12-18T14:31:18;4.13;;;2.30;;
61188;SDS011;47054;39.716;2.904;2022-12-18T14:34:14;5.13;;;2.30;;
61188;SDS011;47054;39.716;2.904;2022-12-18T14:36:59;4.85;;;2.55;;
61188;SDS011;47054;39.716;2.904;2022-12-18T14:40:00;4.47;;;2.70;;
61188;SDS011;47054;39.716;2.904;2022-12-18T14:42:46;5.40;;;2.83;;
61188;SDS011;47054;39.716;2.904;2022-12-18T14:45:37;4.50;;;2.38;;
61188;SDS011;47054;39.716;2.904;2022-12-18T14:51:20;5.35;;;2.45;;
61188;SDS011;47054;39.716;2.904;2022-12-18T14:54:12;3.75;;;2.20;;
61188;SDS011;47054;39.716;2.904;2022-12-18T14:59:48;6.05;;;2.63;;
61188;SDS011;47054;39.716;2.904;2022-12-18T15:02:34;4.22;;;2.47;;
61188;SDS011;47054;39.716;2.904;2022-12-18T15:05:21;4.32;;;2.40;;
61188;SDS011;47054;39.716;2.904;2022-12-18T15:08:24;4.20;;;2.30;;
61188;SDS011;47054;39.716;2.904;2022-12-18T15:17:27;5.80;;;2.75;;
61188;SDS011;47054;39.716;2.904;2022-12-18T15:20:12;5.10;;;2.60;;
61188;SDS011;47054;39.716;2.904;2022-12-18T15:22:58;5.40;;;2.67;;
61188;SDS011;47054;39.716;2.904;2022-12-18T15:25:42;4.68;;;2.65;;
61188;SDS011;47054;39.716;2.904;2022-12-18T15:28:35;4.50;;;2.60;;
61188;SDS011;47054;39.716;2.904;2022-12-18T15:31:29;5.85;;;2.65;;
61188;SDS011;47054;39.716;2.904;2022-12-18T15:34:20;5.15;;;2.60;;
61188;SDS011;47054;39.716;2.904;2022-12-18T15:37:07;5.13;;;2.70;;
61188;SDS011;47054;39.716;2.904;2022-12-18T15:39:52;5.15;;;2.50;;
61188;SDS011;47054;39.716;2.904;2022-12-18T15:42:36;5.25;;;2.72;;
61188;SDS011;47054;39.716;2.904;2022-12-18T15:45:39;4.95;;;2.65;;
61188;SDS011;47054;39.716;2.904;2022-12-18T15:48:24;5.38;;;2.67;;
61188;SDS011;47054;39.716;2.904;2022-12-18T15:54:15;5.88;;;2.80;;
61188;SDS011;47054;39.716;2.904;2022-12-18T15:57:00;5.13;;;2.78;;
61188;SDS011;47054;39.716;2.904;2022-12-18T16:00:04;4.28;;;2.50;;
61188;SDS011;47054;39.716;2.904;2022-12-18T16:02:49;4.65;;;2.60;;
61188;SDS011;47054;39.716;2.904;2022-12-18T16:05:33;5.95;;;2.75;;
61188;SDS011;47054;39.716;2.904;2022-12-18T16:08:18;5.55;;;2.70;;
61188;SDS011;47054;39.716;2.904;2022-12-18T16:11:03;5.03;;;2.97;;
61188;SDS011;47054;39.716;2.904;2022-12-18T16:13:48;5.30;;;2.70;;
61188;SDS011;47054;39.716;2.904;2022-12-18T16:16:33;4.55;;;2.55;;
61188;SDS011;47054;39.716;2.904;2022-12-18T16:19:17;5.97;;;2.88;;
61188;SDS011;47054;39.716;2.904;2022-12-18T16:22:03;4.63;;;2.60;;
61188;SDS011;47054;39.716;2.904;2022-12-18T16:24:48;5.13;;;2.78;;
61188;SDS011;47054;39.716;2.904;2022-12-18T16:27:34;4.25;;;2.65;;
61188;SDS011;47054;39.716;2.904;2022-12-18T16:30:21;4.70;;;2.70;;
61188;SDS011;47054;39.716;2.904;2022-12-18T16:33:10;5.72;;;2.83;;
61188;SDS011;47054;39.716;2.904;2022-12-18T16:35:56;5.07;;;2.90;;
61188;SDS011;47054;39.716;2.904;2022-12-18T16:38:40;4.78;;;2.85;;
61188;SDS011;47054;39.716;2.904;2022-12-18T16:41:25;4.93;;;2.67;;
61188;SDS011;47054;39.716;2.904;2022-12-18T16:44:16;5.10;;;2.60;;
61188;SDS011;47054;39.716;2.904;2022-12-18T16:47:01;6.03;;;2.80;;
61188;SDS011;47054;39.716;2.904;2022-12-18T16:49:46;5.22;;;3.10;;
61188;SDS011;47054;39.716;2.904;2022-12-18T16:52:33;5.20;;;2.88;;
61188;SDS011;47054;39.716;2.904;2022-12-18T16:55:19;4.45;;;2.63;;
61188;SDS011;47054;39.716;2.904;2022-12-18T16:58:03;4.88;;;2.60;;
61188;SDS011;47054;39.716;2.904;2022-12-18T17:00:48;5.63;;;3.05;;
61188;SDS011;47054;39.716;2.904;2022-12-18T17:03:32;5.60;;;2.78;;
61188;SDS011;47054;39.716;2.904;2022-12-18T17:06:17;4.80;;;2.67;;
61188;SDS011;47054;39.716;2.904;2022-12-18T17:09:04;6.07;;;2.70;;
61188;SDS011;47054;39.716;2.904;2022-12-18T17:11:53;4.68;;;2.60;;
61188;SDS011;47054;39.716;2.904;2022-12-18T17:14:38;4.57;;;2.58;;
61188;SDS011;47054;39.716;2.904;2022-12-18T17:17:22;5.05;;;2.75;;
61188;SDS011;47054;39.716;2.904;2022-12-18T17:20:08;4.72;;;2.60;;
61188;SDS011;47054;39.716;2.904;2022-12-18T17:22:53;4.57;;;2.70;;
61188;SDS011;47054;39.716;2.904;2022-12-18T17:25:41;4.90;;;2.40;;
61188;SDS011;47054;39.716;2.904;2022-12-18T17:28:25;4.22;;;2.30;;
61188;SDS011;47054;39.716;2.904;2022-12-18T17:31:18;5.28;;;2.40;;
61188;SDS011;47054;39.716;2.904;2022-12-18T17:34:06;3.83;;;2.30;;
61188;SDS011;47054;39.716;2.904;2022-12-18T17:36:53;4.38;;;2.42;;
61188;SDS011;47054;39.716;2.904;2022-12-18T17:39:38;4.82;;;2.50;;
61188;SDS011;47054;39.716;2.904;2022-12-18T17:42:23;4.53;;;2.55;;
61188;SDS011;47054;39.716;2.904;2022-12-18T17:45:09;4.80;;;2.38;;
61188;SDS011;47054;39.716;2.904;2022-12-18T17:47:53;4.15;;;2.22;;
61188;SDS011;47054;39.716;2.904;2022-12-18T17:50:39;4.72;;;2.63;;
61188;SDS011;47054;39.716;2.904;2022-12-18T17:53:28;4.18;;;2.28;;
61188;SDS011;47054;39.716;2.904;2022-12-18T17:56:14;3.80;;;2.30;;
61188;SDS011;47054;39.716;2.904;2022-12-18T17:58:59;4.45;;;2.65;;
61188;SDS011;47054;39.716;2.904;2022-12-18T18:01:44;4.82;;;2.50;;
61188;SDS011;47054;39.716;2.904;2022-12-18T18:04:29;5.57;;;2.50;;
61188;SDS011;47054;39.716;2.904;2022-12-18T18:07:14;5.10;;;2.50;;
61188;SDS011;47054;39.716;2.904;2022-12-18T18:09:59;4.63;;;2.40;;
61188;SDS011;47054;39.716;2.904;2022-12-18T18:12:44;4.80;;;2.47;;
61188;SDS011;47054;39.716;2.904;2022-12-18T18:15:56;5.18;;;2.50;;
61188;SDS011;47054;39.716;2.904;2022-12-18T18:18:41;4.00;;;2.30;;
61188;SDS011;47054;39.716;2.904;2022-12-18T18:21:26;3.83;;;2.28;;
61188;SDS011;47054;39.716;2.904;2022-12-18T18:24:12;5.15;;;2.65;;
61188;SDS011;47054;39.716;2.904;2022-12-18T18:26:58;5.35;;;2.33;;
61188;SDS011;47054;39.716;2.904;2022-12-18T18:29:43;4.88;;;2.53;;
61188;SDS011;47054;39.716;2.904;2022-12-18T18:32:29;4.22;;;2.35;;
61188;SDS011;47054;39.716;2.904;2022-12-18T18:35:14;4.55;;;2.65;;
61188;SDS011;47054;39.716;2.904;2022-12-18T18:37:59;5.50;;;2.20;;
61188;SDS011;47054;39.716;2.904;2022-12-18T18:40:44;4.50;;;2.35;;